Time;durP1;ratioP1;P1;durP2;ratioP2;P2;SDS_P1;SDS_P2;PMS_P1;PMS_P2;Temp;Humidity;BMP_temperature;BMP_pressure;BME280_temperature;BME280_humidity;BME280_pressure;Samples;Min_cycle;Max_cycle;Signal;HPM_P1;HPM_P2
2022/08/15 00:00:33;;;;;;;5.90;4.95;;;;;;;23.56;53.99;100125.75;5158308;27;20043;-75
2022/08/15 00:03:03;;;;;;;7.05;5.20;;;;;;;23.52;53.97;100127.03;5157727;27;20039;-75
2022/08/15 00:05:38;;;;;;;6.63;5.28;;;;;;;23.48;54.04;100117.59;5158365;27;20039;-74
2022/08/15 00:08:09;;;;;;;7.63;5.32;;;;;;;23.44;54.28;100122.41;5158280;27;20096;-75
2022/08/15 00:11:04;;;;;;;6.03;5.40;;;;;;;23.38;54.39;100117.63;5158333;27;20576;-75
2022/08/15 00:13:58;;;;;;;6.75;5.40;;;;;;;23.35;54.21;100115.25;5157840;27;20043;-75
2022/08/15 00:16:33;;;;;;;6.20;5.25;;;;;;;23.33;54.64;100122.59;5157284;27;20048;-74
2022/08/15 00:19:08;;;;;;;7.85;5.55;;;;;;;23.27;54.44;100114.13;5157783;27;20047;-74
2022/08/15 00:21:46;;;;;;;6.10;5.60;;;;;;;23.22;54.53;100118.22;5157661;27;20043;-74
2022/08/15 00:24:23;;;;;;;6.25;5.65;;;;;;;23.18;54.57;100132.94;5157489;27;20118;-75
2022/08/15 00:26:59;;;;;;;9.23;5.78;;;;;;;23.17;54.16;100133.94;5157768;27;20044;-74
2022/08/15 00:29:31;;;;;;;6.07;5.47;;;;;;;23.17;54.37;100132.09;5157616;27;20557;-74
2022/08/15 00:32:16;;;;;;;6.35;5.75;;;;;;;23.19;54.79;100132.81;5157614;27;20128;-75
2022/08/15 00:35:35;;;;;;;6.22;5.63;;;;;;;23.18;54.85;100130.25;5157901;27;20114;-75
2022/08/15 00:37:56;;;;;;;6.25;5.65;;;;;;;23.19;54.38;100134.69;5157438;27;20121;-75
2022/08/15 00:43:56;;;;;;;7.05;5.43;;;;;;;23.18;54.28;100125.72;5157310;27;20146;-75
2022/08/15 00:46:28;;;;;;;6.80;5.72;;;;;;;23.19;54.43;100138.19;5157860;27;20118;-74
2022/08/15 00:48:56;;;;;;;6.03;5.32;;;;;;;23.20;54.63;100117.53;5138724;27;20051;-74
2022/08/15 00:51:38;;;;;;;6.97;5.55;;;;;;;23.13;54.87;100128.00;5157448;27;20046;-75
2022/08/15 00:54:33;;;;;;;8.85;6.05;;;;;;;23.13;54.90;100119.09;5157549;27;20105;-75
2022/08/15 00:57:28;;;;;;;6.90;5.50;;;;;;;23.09;55.19;100124.78;5139021;27;20039;-74
2022/08/15 01:00:26;;;;;;;8.68;6.15;;;;;;;23.09;55.11;100118.53;5157502;27;20122;-75
2022/08/15 01:03:11;;;;;;;7.35;5.82;;;;;;;23.09;54.90;100115.84;5156026;27;20046;-75
2022/08/15 01:05:52;;;;;;;10.20;5.95;;;;;;;23.08;55.13;100114.16;5157218;27;20508;-74
2022/08/15 01:08:24;;;;;;;8.27;6.40;;;;;;;23.09;55.30;100121.22;5156793;27;20059;-74
2022/08/15 01:11:12;;;;;;;8.60;6.40;;;;;;;23.08;54.95;100122.22;5157026;27;20096;-75
2022/08/15 01:13:41;;;;;;;8.77;6.00;;;;;;;23.09;54.69;100124.78;5138334;27;20132;-75
2022/08/15 01:16:30;;;;;;;8.82;5.70;;;;;;;23.08;55.01;100127.59;5156429;27;20135;-75
2022/08/15 01:19:19;;;;;;;7.55;5.95;;;;;;;23.06;55.21;100118.81;5157055;27;20044;-74
2022/08/15 01:21:49;;;;;;;6.75;6.03;;;;;;;23.03;54.88;100114.59;5137840;27;20499;-75
2022/08/15 01:25:06;;;;;;;6.78;6.07;;;;;;;22.98;55.02;100111.50;5155928;27;20065;-75
2022/08/15 01:28:28;;;;;;;10.15;5.90;;;;;;;22.91;54.90;100116.59;5156659;27;20042;-75
2022/08/15 01:31:21;;;;;;;8.75;6.25;;;;;;;22.85;55.43;100114.47;5135139;27;20063;-75
2022/08/15 01:33:58;;;;;;;6.57;5.82;;;;;;;22.78;55.82;100118.72;5137691;27;20035;-75
2022/08/15 01:36:29;;;;;;;8.25;6.13;;;;;;;22.70;56.04;100118.59;5138046;27;20044;-75
2022/08/15 01:39:22;;;;;;;6.97;6.13;;;;;;;22.62;56.02;100112.13;5156530;27;20043;-74
2022/08/15 01:42:13;;;;;;;6.78;6.15;;;;;;;22.54;56.23;100127.25;5156542;27;20096;-75
2022/08/15 01:45:00;;;;;;;7.03;6.38;;;;;;;22.49;56.30;100128.50;5137754;27;20047;-75
2022/08/15 01:47:42;;;;;;;7.82;6.43;;;;;;;22.43;56.27;100114.81;5138072;27;20039;-75
2022/08/15 01:50:27;;;;;;;8.10;6.57;;;;;;;22.37;57.33;100115.31;5137549;27;20077;-75
2022/08/15 01:53:13;;;;;;;9.13;6.88;;;;;;;22.31;56.90;100114.06;5137615;27;20047;-75
2022/08/15 01:56:05;;;;;;;11.52;7.47;;;;;;;22.25;57.60;100109.25;5137144;27;20055;-75
2022/08/15 01:58:53;;;;;;;10.75;7.95;;;;;;;22.13;57.57;100109.38;5137920;27;20035;-75
2022/08/15 02:01:54;;;;;;;8.82;7.93;;;;;;;22.09;57.72;100101.75;5137695;27;20047;-75
2022/08/15 02:04:31;;;;;;;7.97;7.28;;;;;;;22.01;57.92;100099.75;5155062;27;20045;-75
2022/08/15 02:07:25;;;;;;;9.65;7.93;;;;;;;21.97;58.30;100103.72;5137371;27;20031;-75
2022/08/15 02:09:58;;;;;;;9.35;8.13;;;;;;;21.90;58.49;100105.25;5137683;27;20053;-75
2022/08/15 02:12:47;;;;;;;10.32;9.02;;;;;;;21.81;58.11;100093.53;5137655;27;20882;-75
2022/08/15 02:15:34;;;;;;;9.68;8.60;;;;;;;21.74;58.84;100095.91;5156111;27;20122;-75
2022/08/15 02:18:02;;;;;;;10.48;8.68;;;;;;;21.68;58.62;100099.09;5155005;27;20085;-75
2022/08/15 02:20:32;;;;;;;10.10;9.10;;;;;;;21.64;58.49;100103.06;5137426;27;20047;-74
2022/08/15 02:23:08;;;;;;;11.95;9.35;;;;;;;21.60;58.71;100096.28;5137473;27;20043;-74
2022/08/15 02:25:51;;;;;;;11.52;9.07;;;;;;;21.52;58.89;100111.19;5155847;27;20532;-74
2022/08/15 02:28:23;;;;;;;12.80;9.05;;;;;;;21.45;59.15;100119.88;5154877;27;20039;-74
2022/08/15 02:31:17;;;;;;;12.10;9.32;;;;;;;21.36;59.37;100113.53;5137364;27;20035;-74
2022/08/15 02:33:58;;;;;;;12.05;9.70;;;;;;;21.29;59.63;100115.88;5137206;27;20540;-74
2022/08/15 02:36:31;;;;;;;13.68;10.13;;;;;;;21.25;59.58;100115.31;5136964;27;20061;-74
2022/08/15 02:39:19;;;;;;;12.38;11.00;;;;;;;21.24;60.38;100110.94;5137528;27;20062;-74
2022/08/15 02:41:51;;;;;;;11.90;10.63;;;;;;;21.24;60.54;100118.09;5137089;27;20051;-74
2022/08/15 02:44:22;;;;;;;12.02;10.38;;;;;;;21.25;60.50;100119.81;5156088;27;20074;-75
2022/08/15 02:47:00;;;;;;;14.02;11.27;;;;;;;21.25;60.79;100130.53;5137339;27;20039;-75
2022/08/15 02:49:37;;;;;;;12.85;11.52;;;;;;;21.23;61.30;100119.94;5136654;27;20104;-75
2022/08/15 02:52:17;;;;;;;13.85;12.45;;;;;;;21.23;61.83;100121.75;5137266;27;20036;-74
2022/08/15 02:54:46;;;;;;;16.13;12.57;;;;;;;21.19;61.59;100117.66;5155334;27;20039;-74
2022/08/15 02:57:32;;;;;;;15.68;13.30;;;;;;;21.13;61.91;100113.69;5137059;27;20048;-74
2022/08/15 03:00:20;;;;;;;14.50;13.10;;;;;;;21.07;61.81;100115.06;5136916;27;20045;-74
2022/08/15 03:03:05;;;;;;;14.88;13.20;;;;;;;21.01;62.11;100112.06;5139426;27;20034;-74
2022/08/15 03:05:39;;;;;;;17.02;13.57;;;;;;;20.98;62.19;100117.66;5140763;27;20043;-75
2022/08/15 03:08:10;;;;;;;23.50;14.55;;;;;;;20.92;61.73;100111.88;5140887;27;20051;-74
2022/08/15 03:10:38;;;;;;;16.55;14.95;;;;;;;20.91;62.40;100122.69;5140362;27;20042;-74
2022/08/15 03:13:14;;;;;;;21.75;15.40;;;;;;;20.90;62.33;100119.19;5140513;27;20472;-74
2022/08/15 03:16:03;;;;;;;18.38;15.55;;;;;;;20.93;62.96;100118.06;5158794;27;20096;-74
2022/08/15 03:18:35;;;;;;;16.50;14.80;;;;;;;20.91;63.30;100112.84;5139806;27;20051;-74
2022/08/15 03:21:12;;;;;;;19.23;16.42;;;;;;;20.87;62.84;100111.41;5140334;27;20440;-74
2022/08/15 03:23:48;;;;;;;18.35;16.10;;;;;;;20.85;62.48;100113.38;5140530;27;20051;-73
2022/08/15 03:26:25;;;;;;;19.25;15.75;;;;;;;20.85;62.65;100108.03;5140406;27;20058;-74
2022/08/15 03:29:18;;;;;;;17.05;15.32;;;;;;;20.83;62.60;100115.34;5158829;27;20552;-74
2022/08/15 03:31:50;;;;;;;18.48;14.43;;;;;;;20.81;62.19;100114.63;5140304;27;20039;-74
2022/08/15 03:34:23;;;;;;;20.63;13.45;;;;;;;20.81;62.25;100117.28;5139920;27;20968;-75
2022/08/15 03:36:57;;;;;;;14.93;13.18;;;;;;;20.78;62.01;100106.84;5140314;27;20836;-74
2022/08/15 03:39:27;;;;;;;15.60;12.65;;;;;;;20.74;61.71;100108.94;5140062;27;20043;-74
2022/08/15 03:41:55;;;;;;;13.43;12.13;;;;;;;20.74;61.53;100108.09;5139910;27;20043;-74
2022/08/15 03:44:25;;;;;;;15.00;11.25;;;;;;;20.73;61.08;100117.91;5140164;27;20047;-74
2022/08/15 03:47:00;;;;;;;14.45;10.75;;;;;;;20.74;61.06;100116.97;5140153;27;20051;-74
2022/08/15 03:49:29;;;;;;;13.27;10.40;;;;;;;20.75;60.67;100121.34;5139964;27;20432;-74
2022/08/15 03:52:17;;;;;;;9.73;8.77;;;;;;;20.78;60.17;100125.59;5139862;27;20570;-74
2022/08/15 03:55:07;;;;;;;13.35;8.45;;;;;;;20.78;59.18;100129.13;5158339;27;20047;-74
2022/08/15 03:57:46;;;;;;;12.13;7.85;;;;;;;20.81;58.70;100132.53;5139908;27;20099;-75
2022/08/15 04:00:48;;;;;;;12.85;6.97;;;;;;;20.84;58.06;100133.13;5139597;27;20036;-74
2022/08/15 04:03:27;;;;;;;8.50;6.13;;;;;;;20.84;57.93;100129.56;5156866;27;20626;-74
2022/08/15 04:06:06;;;;;;;6.68;5.20;;;;;;;20.89;57.24;100120.16;5139271;27;20134;-75
2022/08/15 04:08:36;;;;;;;6.80;5.20;;;;;;;20.91;56.32;100117.34;5139624;27;20039;-76
2022/08/15 04:11:29;;;;;;;6.00;4.70;;;;;;;20.93;55.86;100110.03;5139961;27;20043;-74
2022/08/15 04:14:08;;;;;;;10.38;4.50;;;;;;;20.94;55.66;100114.41;5138611;27;20039;-76
2022/08/15 04:17:03;;;;;;;6.35;4.40;;;;;;;20.92;55.80;100114.56;5135893;27;20531;-75
2022/08/15 04:19:48;;;;;;;5.40;3.80;;;;;;;20.92;55.06;100116.38;5135539;27;20511;-75
2022/08/15 04:22:34;;;;;;;6.90;4.13;;;;;;;20.90;54.91;100129.91;5136037;27;20135;-75
2022/08/15 04:25:29;;;;;;;10.35;4.30;;;;;;;20.92;54.76;100130.63;5135694;27;20043;-75
2022/08/15 04:28:15;;;;;;;5.18;3.15;;;;;;;20.92;54.70;100133.31;5135751;27;20054;-74
2022/08/15 04:31:12;;;;;;;4.55;3.25;;;;;;;20.93;54.33;100137.69;5135595;27;20039;-74
2022/08/15 04:33:44;;;;;;;15.73;4.45;;;;;;;20.94;54.11;100135.84;5136108;27;20055;-74
2022/08/15 04:36:31;;;;;;;4.55;3.50;;;;;;;20.93;53.88;100136.81;5121364;27;20040;-75
2022/08/15 04:39:03;;;;;;;6.32;3.50;;;;;;;20.95;53.62;100134.88;5135883;27;20040;-74
2022/08/15 04:41:42;;;;;;;12.95;3.85;;;;;;;20.94;53.94;100139.38;5135270;27;20067;-74
2022/08/15 04:44:18;;;;;;;27.83;5.40;;;;;;;20.96;53.36;100141.09;5135563;27;20044;-74
2022/08/15 04:46:55;;;;;;;11.18;3.50;;;;;;;20.96;53.67;100138.41;5135649;27;20489;-75
2022/08/15 04:49:23;;;;;;;14.75;4.20;;;;;;;20.96;53.57;100138.41;5135512;27;20047;-74
2022/08/15 04:51:51;;;;;;;7.57;3.70;;;;;;;20.96;53.65;100138.41;5134893;27;20046;-74
2022/08/15 04:54:22;;;;;;;7.63;3.40;;;;;;;20.92;53.87;100141.34;5135471;27;20052;-75
2022/08/15 04:57:15;;;;;;;5.68;3.40;;;;;;;20.92;53.81;100143.16;5135660;27;20043;-74
2022/08/15 04:59:46;;;;;;;8.27;3.90;;;;;;;20.92;53.75;100148.50;5135607;27;20507;-74
2022/08/15 05:03:16;;;;;;;14.68;4.65;;;;;;;20.88;53.53;100153.28;5135540;27;20044;-75
2022/08/15 05:05:53;;;;;;;11.57;3.95;;;;;;;20.87;53.96;100154.25;5134829;27;20043;-74
2022/08/15 05:08:27;;;;;;;8.55;3.55;;;;;;;20.87;53.86;100150.75;5135419;27;20051;-74
2022/08/15 05:11:05;;;;;;;13.90;3.80;;;;;;;20.85;54.00;100145.53;5135033;27;20035;-74
2022/08/15 05:13:36;;;;;;;10.20;3.80;;;;;;;20.82;53.76;100144.91;5135036;27;20036;-75
2022/08/15 05:16:07;;;;;;;15.05;3.92;;;;;;;20.82;53.84;100156.50;5134918;27;20032;-75
2022/08/15 05:18:42;;;;;;;16.48;3.97;;;;;;;20.81;54.28;100156.63;5134162;27;20535;-74
2022/08/15 05:21:14;;;;;;;8.32;3.70;;;;;;;20.81;54.06;100162.81;5135262;27;20531;-76
2022/08/15 05:23:42;;;;;;;5.50;4.00;;;;;;;20.83;54.16;100162.69;5135113;27;20035;-75
2022/08/15 05:26:17;;;;;;;10.75;4.15;;;;;;;20.83;54.15;100166.22;5133388;27;20110;-74
2022/08/15 05:29:06;;;;;;;8.02;4.35;;;;;;;20.89;53.97;100172.91;5135787;27;20545;-75
2022/08/15 05:31:35;;;;;;;20.85;4.22;;;;;;;20.92;54.04;100173.50;5134967;27;20624;-74
2022/08/15 05:34:08;;;;;;;10.85;4.07;;;;;;;20.93;54.00;100177.88;5134936;27;20049;-75
2022/08/15 05:36:49;;;;;;;10.52;4.20;;;;;;;20.93;54.24;100177.88;5134771;27;20614;-75
2022/08/15 05:39:25;;;;;;;16.30;5.05;;;;;;;20.92;54.49;100180.66;5134323;27;20085;-74
2022/08/15 05:42:36;;;;;;;18.40;4.80;;;;;;;20.93;54.51;100182.34;5134641;27;20462;-74
2022/08/15 05:45:30;;;;;;;9.23;4.65;;;;;;;21.04;54.40;100184.97;5134723;27;20047;-74
2022/08/15 05:48:16;;;;;;;29.05;5.88;;;;;;;21.29;54.44;100187.38;5134566;27;20485;-74
2022/08/15 05:51:12;;;;;;;9.18;3.72;;;;;;;21.84;53.21;100187.13;5134651;27;20046;-75
2022/08/15 05:53:59;;;;;;;17.42;4.50;;;;;;;21.97;52.94;100182.38;5133847;27;20044;-74
2022/08/15 05:57:01;;;;;;;10.35;4.20;;;;;;;21.84;53.04;100182.63;5134673;27;20047;-74
2022/08/15 05:59:57;;;;;;;15.80;4.43;;;;;;;21.76;53.93;100189.63;5134421;27;20071;-74
2022/08/15 06:02:39;;;;;;;20.65;5.15;;;;;;;21.78;53.89;100195.72;5117226;27;20507;-74
2022/08/15 06:05:36;;;;;;;13.23;4.28;;;;;;;21.94;53.79;100193.38;5133931;27;20047;-75
2022/08/15 06:08:13;;;;;;;12.82;3.97;;;;;;;22.05;53.88;100199.63;5134194;27;20093;-74
2022/08/15 06:11:17;;;;;;;13.82;4.25;;;;;;;22.11;53.54;100199.09;5135903;27;20040;-73
2022/08/15 06:14:20;;;;;;;;;;;;;;;22.12;53.72;100204.31;5134225;27;20177;-74
2022/08/15 06:17:34;;;;;;;21.98;5.05;;;;;;;22.16;54.12;100203.06;5133910;27;20018;-74
2022/08/15 06:20:10;;;;;;;16.42;4.43;;;;;;;22.18;54.39;100201.06;5134080;27;20036;-74
2022/08/15 06:23:25;;;;;;;12.88;4.13;;;;;;;22.23;54.13;100195.28;5134258;27;20040;-75
2022/08/15 06:26:44;;;;;;;22.05;4.88;;;;;;;22.32;54.11;100183.72;5134203;27;20042;-75
2022/08/15 06:29:34;;;;;;;16.33;4.00;;;;;;;22.40;54.02;100184.88;5133348;27;20039;-74
2022/08/15 06:33:06;;;;;;;11.57;4.18;;;;;;;22.46;54.17;100193.25;5134185;27;20402;-74
2022/08/15 06:36:04;;;;;;;11.10;4.20;;;;;;;22.55;54.28;100196.06;5117421;27;20059;-74
2022/08/15 06:39:15;;;;;;;15.55;3.92;;;;;;;22.68;54.64;100210.09;5134062;27;20036;-76
2022/08/15 06:42:17;;;;;;;9.73;3.60;;;;;;;22.75;54.58;100210.34;5113693;27;20058;-74
2022/08/15 06:45:01;;;;;;;13.02;4.30;;;;;;;22.83;54.58;100220.41;5133053;27;20082;-74
2022/08/15 06:47:29;;;;;;;29.10;5.50;;;;;;;22.90;54.48;100226.91;5133730;27;20042;-74
2022/08/15 06:50:37;;;;;;;10.15;3.40;;;;;;;22.99;54.35;100231.44;5135074;27;20052;-75
2022/08/15 06:53:18;;;;;;;16.08;4.10;;;;;;;23.04;54.04;100222.97;5115808;27;20150;-75
2022/08/15 06:56:18;;;;;;;14.20;3.90;;;;;;;23.09;54.38;100213.47;5133764;27;20137;-75
2022/08/15 06:59:14;;;;;;;17.85;4.00;;;;;;;23.15;54.07;100205.81;5112071;27;20642;-75
2022/08/15 07:02:21;;;;;;;13.18;3.50;;;;;;;23.19;54.11;100205.41;5133843;27;20538;-75
2022/08/15 07:05:30;;;;;;;5.75;3.25;;;;;;;23.27;54.20;100218.13;5133756;27;20040;-75
2022/08/15 07:08:32;;;;;;;8.05;3.30;;;;;;;23.31;54.02;100210.63;5133164;27;20039;-75
2022/08/15 07:11:54;;;;;;;8.02;3.30;;;;;;;23.37;54.44;100226.16;5133269;27;20039;-74
2022/08/15 07:14:43;;;;;;;6.88;2.90;;;;;;;23.45;53.78;100220.94;5131116;27;20127;-74
2022/08/15 07:17:33;;;;;;;5.18;3.20;;;;;;;23.51;53.92;100217.66;5133088;27;20056;-75
2022/08/15 07:20:06;;;;;;;6.38;3.22;;;;;;;23.55;53.63;100202.91;5132996;27;20040;-75
2022/08/15 07:22:54;;;;;;;4.32;2.90;;;;;;;23.56;53.96;100204.59;5133012;27;20044;-75
2022/08/15 07:25:29;;;;;;;5.28;3.30;;;;;;;23.57;53.78;100208.16;5132784;27;20040;-75
2022/08/15 07:28:05;;;;;;;8.48;2.95;;;;;;;23.56;54.23;100214.53;5134568;27;20515;-74
2022/08/15 07:31:08;;;;;;;8.82;3.30;;;;;;;23.61;54.05;100220.28;5133255;27;20050;-75
2022/08/15 07:33:48;;;;;;;12.02;3.85;;;;;;;23.64;53.81;100225.41;5132896;27;20283;-74
2022/08/15 07:36:31;;;;;;;9.55;3.55;;;;;;;23.66;54.15;100227.94;5133162;27;20039;-75
2022/08/15 07:39:41;;;;;;;18.77;4.30;;;;;;;23.65;54.21;100219.03;5132939;27;20382;-75
2022/08/15 07:42:21;;;;;;;10.23;3.70;;;;;;;23.66;53.83;100217.16;5104005;27;20342;-75
2022/08/15 07:45:26;;;;;;;8.18;3.53;;;;;;;23.68;53.90;100218.75;5132869;27;20089;-76
2022/08/15 07:48:29;;;;;;;14.32;3.60;;;;;;;23.69;54.47;100222.25;5133129;27;20036;-75
2022/08/15 07:51:14;;;;;;;10.45;3.17;;;;;;;23.75;54.42;100215.44;5136350;27;20048;-74
2022/08/15 07:54:27;;;;;;;24.05;4.78;;;;;;;23.83;54.12;100220.94;5136667;27;20101;-75
2022/08/15 07:57:06;;;;;;;14.18;4.00;;;;;;;23.92;54.23;100217.34;5135827;27;20035;-75
2022/08/15 07:59:37;;;;;;;10.85;3.05;;;;;;;24.02;54.35;100223.56;5136501;27;20553;-75
2022/08/15 08:03:17;;;;;;;8.43;3.58;;;;;;;24.21;54.13;100232.56;5137465;27;20047;-75
2022/08/15 08:06:08;;;;;;;15.27;4.18;;;;;;;24.45;53.85;100232.00;5136340;27;20039;-74
2022/08/15 08:09:47;;;;;;;14.27;3.53;;;;;;;24.65;53.42;100232.69;5135495;27;20051;-74
2022/08/15 08:12:42;;;;;;;12.00;3.60;;;;;;;24.78;52.61;100245.78;5136220;27;20036;-74
2022/08/15 08:16:09;;;;;;;5.60;3.15;;;;;;;24.84;52.37;100241.63;5136005;27;20031;-75
2022/08/15 08:19:17;;;;;;;6.78;2.90;;;;;;;24.88;51.80;100252.94;5135085;27;20048;-74
2022/08/15 08:22:22;;;;;;;5.32;3.38;;;;;;;24.88;51.87;100252.94;5135714;27;20047;-74
2022/08/15 08:25:09;;;;;;;8.50;3.22;;;;;;;24.91;51.50;100258.03;5135925;27;20050;-74
2022/08/15 08:27:54;;;;;;;6.57;3.15;;;;;;;24.90;51.86;100259.91;5135937;27;20035;-75
2022/08/15 08:30:34;;;;;;;6.45;3.25;;;;;;;24.96;51.37;100263.84;5135889;27;20040;-75
2022/08/15 08:33:33;;;;;;;7.90;3.60;;;;;;;25.00;51.07;100249.03;5136553;27;20036;-75
2022/08/15 08:36:32;;;;;;;6.15;3.42;;;;;;;25.06;51.28;100242.16;5136952;27;20054;-74
2022/08/15 08:39:36;;;;;;;17.23;3.83;;;;;;;25.11;51.10;100243.41;5137002;27;20036;-75
2022/08/15 08:42:31;;;;;;;19.60;4.50;;;;;;;25.17;50.93;100244.63;5136468;27;20101;-74
2022/08/15 08:45:24;;;;;;;11.43;3.47;;;;;;;25.17;50.82;100241.09;5136395;27;20036;-75
2022/08/15 08:48:31;;;;;;;9.90;3.40;;;;;;;25.07;51.24;100235.78;5137189;27;20044;-74
2022/08/15 08:51:17;;;;;;;11.90;3.67;;;;;;;25.02;51.23;100238.09;5135716;27;20031;-74
2022/08/15 08:54:15;;;;;;;9.23;3.58;;;;;;;25.01;51.63;100231.84;5136495;27;20058;-75
2022/08/15 08:57:10;;;;;;;6.97;3.60;;;;;;;24.98;51.99;100229.47;5136348;27;20131;-75
2022/08/15 08:59:59;;;;;;;29.83;3.80;;;;;;;25.00;51.86;100229.31;5136264;27;20066;-75
2022/08/15 09:02:58;;;;;;;30.02;5.28;;;;;;;24.95;52.00;100222.53;5136625;27;20527;-76
2022/08/15 09:05:37;;;;;;;22.02;3.88;;;;;;;24.94;51.75;100238.88;5136005;27;20115;-75
2022/08/15 09:08:24;;;;;;;12.98;3.25;;;;;;;24.95;51.71;100240.56;5136443;27;20036;-75
2022/08/15 09:11:03;;;;;;;13.43;3.80;;;;;;;25.01;51.88;100233.72;5136468;27;20043;-75
2022/08/15 09:13:34;;;;;;;9.25;3.70;;;;;;;25.08;51.62;100237.47;5136391;27;20532;-75
2022/08/15 09:16:25;;;;;;;8.00;3.40;;;;;;;25.17;51.68;100236.53;5135817;27;20501;-75
2022/08/15 09:19:06;;;;;;;22.52;4.18;;;;;;;25.19;51.64;100241.75;5136420;27;20040;-75
2022/08/15 09:21:42;;;;;;;16.42;4.10;;;;;;;25.18;51.67;100237.41;5136411;27;20039;-74
2022/08/15 09:24:13;;;;;;;9.43;3.80;;;;;;;25.15;51.88;100237.69;5135720;27;20043;-75
2022/08/15 09:27:50;;;;;;;9.18;4.10;;;;;;;25.10;51.88;100236.31;5135935;27;20044;-77
2022/08/15 09:30:27;;;;;;;13.02;3.70;;;;;;;25.03;51.95;100226.31;5136088;27;20101;-74
2022/08/15 09:33:53;;;;;;;20.52;4.50;;;;;;;24.99;52.68;100236.56;5135624;27;20028;-74
2022/08/15 09:37:00;;;;;;;20.58;4.63;;;;;;;24.92;53.83;100244.44;5136016;27;20488;-74
2022/08/15 09:40:00;;;;;;;22.20;4.35;;;;;;;24.87;54.64;100254.81;5135338;27;20048;-75
2022/08/15 09:42:49;;;;;;;14.73;4.40;;;;;;;24.79;55.08;100262.84;5135503;27;20116;-74
2022/08/15 09:46:10;;;;;;;8.93;4.30;;;;;;;24.69;55.47;100260.19;5135827;27;20108;-74
2022/08/15 09:49:32;;;;;;;12.88;4.57;;;;;;;24.66;56.58;100255.94;5135733;27;20043;-74
2022/08/15 09:52:35;;;;;;;5.22;3.90;;;;;;;24.65;56.55;100262.31;5135436;27;20036;-74
2022/08/15 09:55:47;;;;;;;17.70;5.05;;;;;;;24.70;56.23;100266.44;5135042;27;20052;-75
2022/08/15 09:58:29;;;;;;;15.10;4.70;;;;;;;24.79;56.18;100268.22;5135327;27;20039;-75
2022/08/15 10:01:18;;;;;;;7.13;4.00;;;;;;;24.93;56.38;100275.75;5135770;27;20488;-74
2022/08/15 10:04:08;;;;;;;19.30;4.30;;;;;;;25.10;56.17;100279.44;5135363;27;20114;-74
2022/08/15 10:06:57;;;;;;;18.10;4.80;;;;;;;25.27;56.00;100280.44;5135503;27;20579;-74
2022/08/15 10:09:34;;;;;;;14.40;4.90;;;;;;;25.49;55.92;100285.50;5135476;27;20035;-75
2022/08/15 10:12:06;;;;;;;10.52;4.85;;;;;;;25.66;55.28;100286.47;5134183;27;20035;-74
2022/08/15 10:14:53;;;;;;;6.20;4.60;;;;;;;25.83;54.40;100284.72;5135152;27;20116;-74
2022/08/15 10:17:42;;;;;;;15.68;5.00;;;;;;;25.96;54.16;100284.28;5143101;27;20148;-75
2022/08/15 10:20:46;;;;;;;9.85;4.47;;;;;;;26.04;53.18;100285.19;5155447;27;20039;-74
2022/08/15 10:23:14;;;;;;;8.52;4.30;;;;;;;26.05;52.02;100289.59;5155707;27;20039;-75
2022/08/15 10:25:46;;;;;;;6.65;4.18;;;;;;;26.02;52.60;100283.66;5156025;27;20066;-74
2022/08/15 10:28:23;;;;;;;18.08;5.05;;;;;;;26.04;52.55;100282.47;5156183;27;20039;-74
2022/08/15 10:31:10;;;;;;;9.80;4.75;;;;;;;26.10;52.40;100278.31;5156047;27;20100;-75
2022/08/15 10:33:52;;;;;;;8.68;4.47;;;;;;;26.11;52.43;100282.72;5155885;27;20067;-75
2022/08/15 10:36:35;;;;;;;9.45;3.70;;;;;;;26.16;51.74;100287.63;5155755;27;20047;-76
2022/08/15 10:39:54;;;;;;;8.93;4.20;;;;;;;26.16;52.25;100282.22;5155908;27;20049;-74
2022/08/15 10:42:42;;;;;;;13.50;6.65;;;;;;;26.16;51.62;100283.06;5155521;27;20092;-76
2022/08/15 10:45:45;;;;;;;16.08;5.00;;;;;;;26.07;52.16;100280.47;5155776;27;20479;-74
2022/08/15 10:49:01;;;;;;;6.78;4.53;;;;;;;26.01;51.94;100288.19;5155347;27;20045;-74
2022/08/15 10:52:19;;;;;;;9.27;4.80;;;;;;;26.01;52.29;100282.78;5155682;27;20476;-75
2022/08/15 10:55:21;;;;;;;8.55;5.10;;;;;;;26.00;52.48;100285.66;5120423;27;20497;-76
2022/08/15 10:58:18;;;;;;;8.68;4.78;;;;;;;25.87;52.86;100286.94;5155575;27;20039;-75
2022/08/15 11:01:04;;;;;;;8.00;5.03;;;;;;;25.82;52.72;100280.34;5155523;27;20036;-74
2022/08/15 11:03:44;;;;;;;7.32;4.75;;;;;;;25.86;52.79;100289.81;5155100;27;20495;-75
2022/08/15 11:06:41;;;;;;;14.18;5.03;;;;;;;25.84;52.71;100286.44;5155682;27;20118;-75
2022/08/15 11:09:19;;;;;;;9.90;4.47;;;;;;;25.81;52.69;100294.84;5155272;27;20488;-75
2022/08/15 11:11:56;;;;;;;12.15;5.38;;;;;;;25.74;52.94;100292.78;5154817;27;20039;-74
2022/08/15 11:14:39;;;;;;;11.63;4.82;;;;;;;25.73;53.16;100291.09;5155039;27;20040;-75
2022/08/15 11:17:20;;;;;;;14.48;4.45;;;;;;;25.77;53.30;100291.59;5155056;27;20065;-77
2022/08/15 11:19:57;;;;;;;10.82;5.05;;;;;;;25.78;53.03;100292.47;5155552;27;20123;-75
2022/08/15 11:22:54;;;;;;;8.18;4.80;;;;;;;25.79;53.46;100299.56;5155833;27;20047;-74
2022/08/15 11:25:35;;;;;;;15.40;5.35;;;;;;;25.93;53.30;100307.06;5158914;27;20043;-75
2022/08/15 11:28:10;;;;;;;15.55;5.22;;;;;;;26.06;52.90;100303.91;5158788;27;20062;-74
2022/08/15 11:31:11;;;;;;;29.02;5.60;;;;;;;26.18;52.55;100304.53;5158248;27;20038;-75
2022/08/15 11:33:43;;;;;;;9.65;4.93;;;;;;;26.27;52.11;100308.97;5158623;27;20039;-74
2022/08/15 11:36:24;;;;;;;14.07;4.72;;;;;;;26.32;51.74;100306.59;5158805;27;20096;-75
2022/08/15 11:39:14;;;;;;;8.35;4.72;;;;;;;26.50;51.81;100308.38;5158684;27;20039;-75
2022/08/15 11:41:57;;;;;;;14.35;4.72;;;;;;;26.82;50.97;100301.38;5158131;27;20043;-75
2022/08/15 11:44:36;;;;;;;6.97;4.45;;;;;;;27.09;50.59;100305.63;5158598;27;20027;-74
2022/08/15 11:47:10;;;;;;;9.30;5.10;;;;;;;27.37;49.41;100304.47;5158660;27;20043;-75
2022/08/15 11:49:49;;;;;;;10.13;4.85;;;;;;;27.56;49.10;100298.72;5158508;27;20046;-76
2022/08/15 11:52:31;;;;;;;14.23;5.20;;;;;;;27.65;49.31;100296.88;5158398;27;20440;-75
2022/08/15 11:55:24;;;;;;;14.93;5.30;;;;;;;27.80;49.33;100301.56;5157783;27;20559;-75
2022/08/15 11:58:20;;;;;;;7.82;4.35;;;;;;;27.91;47.55;100309.31;5157610;27;20123;-74
2022/08/15 12:00:57;;;;;;;5.47;3.78;;;;;;;27.87;47.83;100305.28;5158309;27;20877;-74
2022/08/15 12:04:05;;;;;;;10.45;4.70;;;;;;;27.86;47.88;100307.13;5158113;27;20045;-75
2022/08/15 12:06:55;;;;;;;20.13;5.28;;;;;;;27.78;47.71;100309.03;5158321;27;20401;-75
2022/08/15 12:09:26;;;;;;;16.95;4.68;;;;;;;27.66;47.77;100312.09;5157687;27;20329;-75
2022/08/15 12:12:28;;;;;;;10.85;4.53;;;;;;;27.52;47.65;100327.16;5157672;27;20054;-75
2022/08/15 12:15:21;;;;;;;9.40;4.28;;;;;;;27.37;47.79;100320.72;5158089;27;20118;-75
2022/08/15 12:18:32;;;;;;;12.00;4.65;;;;;;;27.26;48.35;100327.31;5157001;27;20070;-75
2022/08/15 12:21:16;;;;;;;11.88;4.30;;;;;;;27.28;48.90;100325.25;5157535;27;20482;-75
2022/08/15 12:23:52;;;;;;;8.68;4.07;;;;;;;27.34;48.62;100321.03;5157820;27;20035;-75
2022/08/15 12:26:26;;;;;;;8.40;4.38;;;;;;;27.32;49.07;100315.81;5157585;27;20077;-75
2022/08/15 12:29:15;;;;;;;10.93;3.80;;;;;;;27.25;49.20;100321.03;5157659;27;20043;-74
2022/08/15 12:31:48;;;;;;;9.18;4.10;;;;;;;27.19;49.64;100313.59;5157583;27;20039;-75
2022/08/15 12:34:32;;;;;;;9.50;3.78;;;;;;;27.15;49.33;100311.41;5156946;27;20123;-75
2022/08/15 12:37:13;;;;;;;8.02;4.28;;;;;;;27.03;49.70;100311.72;5157467;27;20047;-75
2022/08/15 12:40:08;;;;;;;7.90;4.30;;;;;;;26.93;49.72;100319.16;5158058;27;20043;-74
2022/08/15 12:42:57;;;;;;;10.93;4.22;;;;;;;26.83;49.97;100324.69;5157593;27;20040;-77
2022/08/15 12:45:27;;;;;;;8.68;4.40;;;;;;;26.77;50.01;100319.94;5157341;27;20074;-75
2022/08/15 12:48:20;;;;;;;7.60;4.13;;;;;;;26.71;50.36;100323.31;5157725;27;20183;-74
2022/08/15 12:50:54;;;;;;;11.60;4.28;;;;;;;26.66;50.06;100312.97;5157835;27;20522;-76
2022/08/15 12:53:22;;;;;;;9.43;4.00;;;;;;;26.67;49.90;100320.91;5157600;27;20100;-75